sensor_id;sensor_type;location;lat;lon;timestamp;P1;durP1;ratioP1;P2;durP2;ratioP2
40599;SDS011;26309;50.924;4.754;2023-12-29T00:00:42;11.95;;;2.70;;
40599;SDS011;26309;50.924;4.754;2023-12-29T00:03:08;8.18;;;2.17;;
40599;SDS011;26309;50.924;4.754;2023-12-29T00:05:34;9.90;;;2.65;;
40599;SDS011;26309;50.924;4.754;2023-12-29T00:08:00;12.48;;;2.47;;
40599;SDS011;26309;50.924;4.754;2023-12-29T00:10:25;10.60;;;2.40;;
40599;SDS011;26309;50.924;4.754;2023-12-29T00:12:51;6.40;;;2.28;;
40599;SDS011;26309;50.924;4.754;2023-12-29T00:15:17;13.70;;;2.70;;
40599;SDS011;26309;50.924;4.754;2023-12-29T00:17:46;10.63;;;2.42;;
40599;SDS011;26309;50.924;4.754;2023-12-29T00:20:12;13.07;;;2.63;;
40599;SDS011;26309;50.924;4.754;2023-12-29T00:22:38;16.38;;;2.95;;
40599;SDS011;26309;50.924;4.754;2023-12-29T00:25:04;13.65;;;2.70;;
40599;SDS011;26309;50.924;4.754;2023-12-29T00:27:30;7.85;;;2.70;;
40599;SDS011;26309;50.924;4.754;2023-12-29T00:30:02;9.02;;;2.20;;
40599;SDS011;26309;50.924;4.754;2023-12-29T00:32:28;13.07;;;3.25;;
40599;SDS011;26309;50.924;4.754;2023-12-29T00:34:53;11.68;;;3.00;;
40599;SDS011;26309;50.924;4.754;2023-12-29T00:37:19;9.18;;;2.55;;
40599;SDS011;26309;50.924;4.754;2023-12-29T00:39:45;11.18;;;2.50;;
40599;SDS011;26309;50.924;4.754;2023-12-29T00:42:11;15.75;;;2.67;;
40599;SDS011;26309;50.924;4.754;2023-12-29T00:44:37;9.95;;;2.55;;
40599;SDS011;26309;50.924;4.754;2023-12-29T00:47:03;10.50;;;2.72;;
40599;SDS011;26309;50.924;4.754;2023-12-29T00:49:29;12.77;;;3.13;;
40599;SDS011;26309;50.924;4.754;2023-12-29T00:51:54;10.98;;;2.47;;
40599;SDS011;26309;50.924;4.754;2023-12-29T00:54:20;12.38;;;2.85;;
40599;SDS011;26309;50.924;4.754;2023-12-29T00:56:50;13.18;;;2.72;;
40599;SDS011;26309;50.924;4.754;2023-12-29T00:59:17;15.38;;;2.80;;
40599;SDS011;26309;50.924;4.754;2023-12-29T01:01:45;14.40;;;2.88;;
40599;SDS011;26309;50.924;4.754;2023-12-29T01:04:11;13.30;;;2.72;;
40599;SDS011;26309;50.924;4.754;2023-12-29T01:06:36;14.20;;;2.83;;
40599;SDS011;26309;50.924;4.754;2023-12-29T01:09:03;14.48;;;2.78;;
40599;SDS011;26309;50.924;4.754;2023-12-29T01:11:29;12.15;;;2.90;;
40599;SDS011;26309;50.924;4.754;2023-12-29T01:13:55;14.57;;;2.75;;
40599;SDS011;26309;50.924;4.754;2023-12-29T01:16:21;14.88;;;2.80;;
40599;SDS011;26309;50.924;4.754;2023-12-29T01:18:47;14.77;;;2.50;;
40599;SDS011;26309;50.924;4.754;2023-12-29T01:21:13;11.90;;;2.72;;
40599;SDS011;26309;50.924;4.754;2023-12-29T01:23:38;9.95;;;2.80;;
40599;SDS011;26309;50.924;4.754;2023-12-29T01:26:04;14.52;;;2.88;;
40599;SDS011;26309;50.924;4.754;2023-12-29T01:28:30;11.82;;;2.75;;
40599;SDS011;26309;50.924;4.754;2023-12-29T01:30:56;11.60;;;2.50;;
40599;SDS011;26309;50.924;4.754;2023-12-29T01:33:25;13.70;;;2.60;;
40599;SDS011;26309;50.924;4.754;2023-12-29T01:35:50;13.43;;;2.45;;
40599;SDS011;26309;50.924;4.754;2023-12-29T01:38:17;11.93;;;3.05;;
40599;SDS011;26309;50.924;4.754;2023-12-29T01:40:45;11.00;;;2.55;;
40599;SDS011;26309;50.924;4.754;2023-12-29T01:43:11;9.77;;;2.80;;
40599;SDS011;26309;50.924;4.754;2023-12-29T01:45:38;11.98;;;2.63;;
40599;SDS011;26309;50.924;4.754;2023-12-29T01:48:05;17.35;;;3.20;;
40599;SDS011;26309;50.924;4.754;2023-12-29T01:50:32;13.52;;;2.70;;
40599;SDS011;26309;50.924;4.754;2023-12-29T01:52:59;13.63;;;3.13;;
40599;SDS011;26309;50.924;4.754;2023-12-29T01:55:28;10.23;;;3.10;;
40599;SDS011;26309;50.924;4.754;2023-12-29T01:57:55;17.60;;;2.78;;
40599;SDS011;26309;50.924;4.754;2023-12-29T02:00:21;10.07;;;2.72;;
40599;SDS011;26309;50.924;4.754;2023-12-29T02:02:48;14.50;;;2.75;;
40599;SDS011;26309;50.924;4.754;2023-12-29T02:05:14;11.48;;;2.35;;
40599;SDS011;26309;50.924;4.754;2023-12-29T02:07:42;13.20;;;2.33;;
40599;SDS011;26309;50.924;4.754;2023-12-29T02:10:09;9.82;;;2.67;;
40599;SDS011;26309;50.924;4.754;2023-12-29T02:12:41;13.13;;;2.75;;
40599;SDS011;26309;50.924;4.754;2023-12-29T02:15:07;15.95;;;2.35;;
40599;SDS011;26309;50.924;4.754;2023-12-29T02:17:52;11.10;;;2.65;;
40599;SDS011;26309;50.924;4.754;2023-12-29T02:20:37;14.70;;;2.75;;
40599;SDS011;26309;50.924;4.754;2023-12-29T02:23:03;12.07;;;2.58;;
40599;SDS011;26309;50.924;4.754;2023-12-29T02:25:29;10.68;;;2.55;;
40599;SDS011;26309;50.924;4.754;2023-12-29T02:27:57;10.02;;;2.67;;
40599;SDS011;26309;50.924;4.754;2023-12-29T02:33:14;9.52;;;2.08;;
40599;SDS011;26309;50.924;4.754;2023-12-29T02:35:45;10.30;;;2.30;;
40599;SDS011;26309;50.924;4.754;2023-12-29T02:38:12;7.80;;;2.53;;
40599;SDS011;26309;50.924;4.754;2023-12-29T02:40:39;11.05;;;2.15;;
40599;SDS011;26309;50.924;4.754;2023-12-29T02:43:05;8.52;;;2.17;;
40599;SDS011;26309;50.924;4.754;2023-12-29T02:45:33;9.23;;;2.55;;
40599;SDS011;26309;50.924;4.754;2023-12-29T02:48:00;10.35;;;2.28;;
40599;SDS011;26309;50.924;4.754;2023-12-29T02:50:26;8.95;;;2.15;;
40599;SDS011;26309;50.924;4.754;2023-12-29T02:52:51;9.25;;;2.22;;
40599;SDS011;26309;50.924;4.754;2023-12-29T02:55:17;8.07;;;2.22;;
40599;SDS011;26309;50.924;4.754;2023-12-29T02:57:44;11.82;;;2.88;;
40599;SDS011;26309;50.924;4.754;2023-12-29T03:00:10;9.23;;;2.40;;
40599;SDS011;26309;50.924;4.754;2023-12-29T03:02:36;8.25;;;2.25;;
40599;SDS011;26309;50.924;4.754;2023-12-29T03:07:31;10.38;;;2.55;;
40599;SDS011;26309;50.924;4.754;2023-12-29T03:09:57;10.70;;;2.10;;
40599;SDS011;26309;50.924;4.754;2023-12-29T03:12:23;18.60;;;2.58;;
40599;SDS011;26309;50.924;4.754;2023-12-29T03:14:49;11.70;;;2.30;;
40599;SDS011;26309;50.924;4.754;2023-12-29T03:17:14;9.55;;;2.03;;
40599;SDS011;26309;50.924;4.754;2023-12-29T03:19:40;8.90;;;2.42;;
40599;SDS011;26309;50.924;4.754;2023-12-29T03:22:06;9.73;;;2.20;;
40599;SDS011;26309;50.924;4.754;2023-12-29T03:24:32;10.55;;;2.65;;
40599;SDS011;26309;50.924;4.754;2023-12-29T03:26:58;15.20;;;2.85;;
40599;SDS011;26309;50.924;4.754;2023-12-29T03:29:24;7.93;;;2.47;;
40599;SDS011;26309;50.924;4.754;2023-12-29T03:31:49;11.98;;;2.50;;
40599;SDS011;26309;50.924;4.754;2023-12-29T03:34:15;12.43;;;2.67;;
40599;SDS011;26309;50.924;4.754;2023-12-29T03:36:41;11.57;;;2.58;;
40599;SDS011;26309;50.924;4.754;2023-12-29T03:39:07;10.18;;;2.42;;
40599;SDS011;26309;50.924;4.754;2023-12-29T03:41:33;9.95;;;2.75;;
40599;SDS011;26309;50.924;4.754;2023-12-29T03:43:58;9.98;;;2.38;;
40599;SDS011;26309;50.924;4.754;2023-12-29T03:46:24;12.05;;;2.42;;
40599;SDS011;26309;50.924;4.754;2023-12-29T03:48:50;8.20;;;2.00;;
40599;SDS011;26309;50.924;4.754;2023-12-29T03:51:18;8.77;;;2.30;;
40599;SDS011;26309;50.924;4.754;2023-12-29T03:53:44;10.13;;;2.47;;
40599;SDS011;26309;50.924;4.754;2023-12-29T03:56:17;12.77;;;2.15;;
40599;SDS011;26309;50.924;4.754;2023-12-29T03:58:47;10.48;;;2.42;;
40599;SDS011;26309;50.924;4.754;2023-12-29T04:01:13;9.55;;;2.25;;
40599;SDS011;26309;50.924;4.754;2023-12-29T04:03:40;7.03;;;2.22;;
40599;SDS011;26309;50.924;4.754;2023-12-29T04:06:06;11.32;;;2.42;;
40599;SDS011;26309;50.924;4.754;2023-12-29T04:08:36;13.95;;;2.50;;
40599;SDS011;26309;50.924;4.754;2023-12-29T04:11:02;12.07;;;2.05;;
40599;SDS011;26309;50.924;4.754;2023-12-29T04:13:29;18.88;;;2.42;;
40599;SDS011;26309;50.924;4.754;2023-12-29T04:15:55;12.15;;;2.65;;
40599;SDS011;26309;50.924;4.754;2023-12-29T04:18:23;12.68;;;2.45;;
40599;SDS011;26309;50.924;4.754;2023-12-29T04:20:49;13.50;;;2.53;;
40599;SDS011;26309;50.924;4.754;2023-12-29T04:23:15;12.75;;;2.47;;
40599;SDS011;26309;50.924;4.754;2023-12-29T04:25:41;16.33;;;2.95;;
40599;SDS011;26309;50.924;4.754;2023-12-29T04:28:08;13.93;;;2.42;;
40599;SDS011;26309;50.924;4.754;2023-12-29T04:30:34;9.40;;;2.65;;
40599;SDS011;26309;50.924;4.754;2023-12-29T04:33:00;13.00;;;2.50;;
40599;SDS011;26309;50.924;4.754;2023-12-29T04:35:27;8.70;;;2.40;;
40599;SDS011;26309;50.924;4.754;2023-12-29T04:37:53;11.15;;;2.53;;
40599;SDS011;26309;50.924;4.754;2023-12-29T04:40:19;11.93;;;2.25;;
40599;SDS011;26309;50.924;4.754;2023-12-29T04:42:45;13.93;;;2.67;;
40599;SDS011;26309;50.924;4.754;2023-12-29T04:45:11;10.30;;;2.28;;
40599;SDS011;26309;50.924;4.754;2023-12-29T04:47:37;11.60;;;2.67;;
40599;SDS011;26309;50.924;4.754;2023-12-29T04:50:03;13.38;;;2.20;;
40599;SDS011;26309;50.924;4.754;2023-12-29T04:52:31;11.75;;;2.65;;
40599;SDS011;26309;50.924;4.754;2023-12-29T04:54:57;11.57;;;2.38;;
40599;SDS011;26309;50.924;4.754;2023-12-29T04:57:22;11.68;;;2.60;;
40599;SDS011;26309;50.924;4.754;2023-12-29T04:59:48;18.02;;;2.95;;
40599;SDS011;26309;50.924;4.754;2023-12-29T05:02:14;11.88;;;2.20;;
40599;SDS011;26309;50.924;4.754;2023-12-29T05:04:40;10.70;;;2.33;;
40599;SDS011;26309;50.924;4.754;2023-12-29T05:07:07;15.27;;;2.90;;
40599;SDS011;26309;50.924;4.754;2023-12-29T05:09:34;10.90;;;2.60;;
40599;SDS011;26309;50.924;4.754;2023-12-29T05:12:00;10.13;;;2.25;;
40599;SDS011;26309;50.924;4.754;2023-12-29T05:14:26;13.05;;;2.30;;
40599;SDS011;26309;50.924;4.754;2023-12-29T05:16:52;9.15;;;2.42;;
40599;SDS011;26309;50.924;4.754;2023-12-29T05:19:17;11.10;;;2.25;;
40599;SDS011;26309;50.924;4.754;2023-12-29T05:21:43;8.27;;;2.63;;
40599;SDS011;26309;50.924;4.754;2023-12-29T05:24:09;10.20;;;2.35;;
40599;SDS011;26309;50.924;4.754;2023-12-29T05:26:35;14.93;;;2.70;;
40599;SDS011;26309;50.924;4.754;2023-12-29T05:29:02;7.80;;;2.20;;
40599;SDS011;26309;50.924;4.754;2023-12-29T05:31:28;13.07;;;2.47;;
40599;SDS011;26309;50.924;4.754;2023-12-29T05:33:55;12.95;;;2.70;;
40599;SDS011;26309;50.924;4.754;2023-12-29T05:36:21;11.27;;;2.38;;
40599;SDS011;26309;50.924;4.754;2023-12-29T05:38:48;9.00;;;2.03;;
40599;SDS011;26309;50.924;4.754;2023-12-29T05:41:14;11.07;;;2.55;;
40599;SDS011;26309;50.924;4.754;2023-12-29T05:43:40;8.95;;;2.58;;
40599;SDS011;26309;50.924;4.754;2023-12-29T05:46:10;14.40;;;2.88;;
40599;SDS011;26309;50.924;4.754;2023-12-29T05:48:39;10.27;;;2.55;;
40599;SDS011;26309;50.924;4.754;2023-12-29T05:51:07;9.07;;;2.28;;
40599;SDS011;26309;50.924;4.754;2023-12-29T05:53:36;9.27;;;2.20;;
40599;SDS011;26309;50.924;4.754;2023-12-29T05:56:02;12.48;;;2.70;;
40599;SDS011;26309;50.924;4.754;2023-12-29T05:58:28;9.35;;;2.85;;
40599;SDS011;26309;50.924;4.754;2023-12-29T06:00:54;11.73;;;3.25;;
40599;SDS011;26309;50.924;4.754;2023-12-29T06:03:21;18.08;;;3.30;;
40599;SDS011;26309;50.924;4.754;2023-12-29T06:05:47;12.77;;;3.08;;
40599;SDS011;26309;50.924;4.754;2023-12-29T06:08:13;9.52;;;2.97;;
40599;SDS011;26309;50.924;4.754;2023-12-29T06:10:39;17.00;;;3.45;;
40599;SDS011;26309;50.924;4.754;2023-12-29T06:13:05;11.57;;;3.00;;
40599;SDS011;26309;50.924;4.754;2023-12-29T06:15:32;14.10;;;2.40;;
40599;SDS011;26309;50.924;4.754;2023-12-29T06:17:58;14.35;;;3.03;;
40599;SDS011;26309;50.924;4.754;2023-12-29T06:20:24;15.68;;;3.33;;
40599;SDS011;26309;50.924;4.754;2023-12-29T06:22:50;17.92;;;3.22;;
40599;SDS011;26309;50.924;4.754;2023-12-29T06:25:16;18.08;;;3.17;;
40599;SDS011;26309;50.924;4.754;2023-12-29T06:27:43;19.38;;;3.40;;
40599;SDS011;26309;50.924;4.754;2023-12-29T06:30:09;18.17;;;3.00;;
40599;SDS011;26309;50.924;4.754;2023-12-29T06:32:36;12.85;;;2.78;;
40599;SDS011;26309;50.924;4.754;2023-12-29T06:35:02;14.38;;;2.78;;
40599;SDS011;26309;50.924;4.754;2023-12-29T06:37:28;18.95;;;3.53;;
40599;SDS011;26309;50.924;4.754;2023-12-29T06:39:55;12.73;;;2.72;;
40599;SDS011;26309;50.924;4.754;2023-12-29T06:42:22;13.23;;;2.90;;
40599;SDS011;26309;50.924;4.754;2023-12-29T06:44:48;14.95;;;2.92;;
40599;SDS011;26309;50.924;4.754;2023-12-29T06:47:14;13.52;;;2.50;;
40599;SDS011;26309;50.924;4.754;2023-12-29T06:49:40;13.20;;;2.50;;
40599;SDS011;26309;50.924;4.754;2023-12-29T06:52:06;13.98;;;2.42;;
40599;SDS011;26309;50.924;4.754;2023-12-29T06:54:33;10.63;;;2.33;;
40599;SDS011;26309;50.924;4.754;2023-12-29T06:56:59;14.00;;;2.90;;
40599;SDS011;26309;50.924;4.754;2023-12-29T06:59:25;13.35;;;2.70;;
40599;SDS011;26309;50.924;4.754;2023-12-29T07:01:51;10.82;;;2.13;;
40599;SDS011;26309;50.924;4.754;2023-12-29T07:04:16;11.18;;;2.72;;
40599;SDS011;26309;50.924;4.754;2023-12-29T07:06:42;11.13;;;2.90;;
40599;SDS011;26309;50.924;4.754;2023-12-29T07:09:08;11.43;;;2.72;;
40599;SDS011;26309;50.924;4.754;2023-12-29T07:11:36;14.82;;;2.60;;
40599;SDS011;26309;50.924;4.754;2023-12-29T07:14:02;12.07;;;2.75;;
40599;SDS011;26309;50.924;4.754;2023-12-29T07:16:29;11.05;;;2.30;;
40599;SDS011;26309;50.924;4.754;2023-12-29T07:18:55;9.25;;;2.63;;
40599;SDS011;26309;50.924;4.754;2023-12-29T07:21:21;9.27;;;2.42;;
40599;SDS011;26309;50.924;4.754;2023-12-29T07:23:46;10.57;;;2.35;;
40599;SDS011;26309;50.924;4.754;2023-12-29T07:26:12;14.95;;;2.35;;
40599;SDS011;26309;50.924;4.754;2023-12-29T07:28:38;8.95;;;2.30;;
40599;SDS011;26309;50.924;4.754;2023-12-29T07:31:04;8.77;;;2.13;;
40599;SDS011;26309;50.924;4.754;2023-12-29T07:33:30;13.07;;;2.47;;
40599;SDS011;26309;50.924;4.754;2023-12-29T07:35:56;6.63;;;2.20;;
40599;SDS011;26309;50.924;4.754;2023-12-29T07:38:23;9.90;;;2.65;;
40599;SDS011;26309;50.924;4.754;2023-12-29T07:40:49;9.85;;;2.63;;
40599;SDS011;26309;50.924;4.754;2023-12-29T07:43:15;10.88;;;2.88;;
40599;SDS011;26309;50.924;4.754;2023-12-29T07:45:42;13.85;;;3.00;;
40599;SDS011;26309;50.924;4.754;2023-12-29T07:48:10;11.35;;;3.25;;
40599;SDS011;26309;50.924;4.754;2023-12-29T07:50:36;10.40;;;3.38;;
40599;SDS011;26309;50.924;4.754;2023-12-29T07:53:02;9.65;;;3.42;;
40599;SDS011;26309;50.924;4.754;2023-12-29T07:55:29;11.18;;;3.30;;
40599;SDS011;26309;50.924;4.754;2023-12-29T07:57:56;10.65;;;3.33;;
40599;SDS011;26309;50.924;4.754;2023-12-29T08:00:23;14.32;;;4.05;;
40599;SDS011;26309;50.924;4.754;2023-12-29T08:02:49;8.35;;;3.50;;
40599;SDS011;26309;50.924;4.754;2023-12-29T08:05:15;7.30;;;3.70;;
40599;SDS011;26309;50.924;4.754;2023-12-29T08:07:42;18.83;;;4.15;;
40599;SDS011;26309;50.924;4.754;2023-12-29T08:10:08;11.52;;;3.33;;
40599;SDS011;26309;50.924;4.754;2023-12-29T08:12:34;18.77;;;4.28;;
40599;SDS011;26309;50.924;4.754;2023-12-29T08:15:03;9.93;;;3.53;;
40599;SDS011;26309;50.924;4.754;2023-12-29T08:17:30;9.73;;;3.10;;
40599;SDS011;26309;50.924;4.754;2023-12-29T08:19:56;12.27;;;3.88;;
40599;SDS011;26309;50.924;4.754;2023-12-29T08:22:22;12.43;;;3.08;;
40599;SDS011;26309;50.924;4.754;2023-12-29T08:24:48;15.00;;;2.85;;
40599;SDS011;26309;50.924;4.754;2023-12-29T08:27:14;17.83;;;3.25;;
40599;SDS011;26309;50.924;4.754;2023-12-29T08:29:47;14.65;;;2.97;;
40599;SDS011;26309;50.924;4.754;2023-12-29T08:32:13;21.02;;;2.95;;
40599;SDS011;26309;50.924;4.754;2023-12-29T08:34:38;11.70;;;2.72;;
40599;SDS011;26309;50.924;4.754;2023-12-29T08:37:04;13.40;;;2.85;;
40599;SDS011;26309;50.924;4.754;2023-12-29T08:39:30;15.18;;;2.60;;
40599;SDS011;26309;50.924;4.754;2023-12-29T08:41:56;13.68;;;3.00;;
40599;SDS011;26309;50.924;4.754;2023-12-29T08:44:22;6.78;;;2.28;;
40599;SDS011;26309;50.924;4.754;2023-12-29T08:46:48;15.15;;;2.33;;
40599;SDS011;26309;50.924;4.754;2023-12-29T08:49:14;8.65;;;2.65;;
40599;SDS011;26309;50.924;4.754;2023-12-29T08:51:40;10.48;;;3.08;;
40599;SDS011;26309;50.924;4.754;2023-12-29T08:54:05;11.30;;;2.72;;
40599;SDS011;26309;50.924;4.754;2023-12-29T08:56:32;16.67;;;2.90;;
40599;SDS011;26309;50.924;4.754;2023-12-29T08:58:57;15.98;;;3.00;;
40599;SDS011;26309;50.924;4.754;2023-12-29T09:01:23;11.80;;;2.60;;
40599;SDS011;26309;50.924;4.754;2023-12-29T09:03:49;12.38;;;2.42;;
40599;SDS011;26309;50.924;4.754;2023-12-29T09:06:15;11.63;;;2.80;;
40599;SDS011;26309;50.924;4.754;2023-12-29T09:08:41;12.80;;;2.60;;
40599;SDS011;26309;50.924;4.754;2023-12-29T09:11:07;10.13;;;2.50;;
40599;SDS011;26309;50.924;4.754;2023-12-29T09:13:33;12.45;;;3.05;;
40599;SDS011;26309;50.924;4.754;2023-12-29T09:15:58;14.52;;;2.53;;
40599;SDS011;26309;50.924;4.754;2023-12-29T09:18:24;9.55;;;2.40;;
40599;SDS011;26309;50.924;4.754;2023-12-29T09:20:50;9.30;;;2.60;;
40599;SDS011;26309;50.924;4.754;2023-12-29T09:23:17;11.50;;;2.70;;
40599;SDS011;26309;50.924;4.754;2023-12-29T09:25:43;10.73;;;2.53;;
40599;SDS011;26309;50.924;4.754;2023-12-29T09:28:10;14.43;;;2.38;;
40599;SDS011;26309;50.924;4.754;2023-12-29T09:30:36;11.57;;;2.47;;
40599;SDS011;26309;50.924;4.754;2023-12-29T09:33:02;10.60;;;2.40;;
40599;SDS011;26309;50.924;4.754;2023-12-29T09:35:28;11.73;;;2.20;;
40599;SDS011;26309;50.924;4.754;2023-12-29T09:37:54;10.05;;;2.30;;
40599;SDS011;26309;50.924;4.754;2023-12-29T09:40:19;8.32;;;2.38;;
40599;SDS011;26309;50.924;4.754;2023-12-29T09:42:46;14.10;;;2.40;;
40599;SDS011;26309;50.924;4.754;2023-12-29T09:45:13;15.13;;;2.67;;
40599;SDS011;26309;50.924;4.754;2023-12-29T09:47:39;10.10;;;2.15;;
40599;SDS011;26309;50.924;4.754;2023-12-29T09:50:07;11.10;;;2.53;;
40599;SDS011;26309;50.924;4.754;2023-12-29T09:52:36;8.88;;;2.42;;
40599;SDS011;26309;50.924;4.754;2023-12-29T09:55:04;10.20;;;2.42;;
40599;SDS011;26309;50.924;4.754;2023-12-29T09:57:34;9.57;;;2.15;;
40599;SDS011;26309;50.924;4.754;2023-12-29T10:00:00;12.30;;;2.50;;
40599;SDS011;26309;50.924;4.754;2023-12-29T10:02:27;10.00;;;2.40;;
40599;SDS011;26309;50.924;4.754;2023-12-29T10:04:55;11.00;;;2.60;;
40599;SDS011;26309;50.924;4.754;2023-12-29T10:07:24;6.00;;;2.08;;
40599;SDS011;26309;50.924;4.754;2023-12-29T10:09:57;11.93;;;2.55;;
40599;SDS011;26309;50.924;4.754;2023-12-29T10:12:24;12.02;;;2.40;;
40599;SDS011;26309;50.924;4.754;2023-12-29T10:15:10;11.10;;;2.70;;
40599;SDS011;26309;50.924;4.754;2023-12-29T10:23:15;11.95;;;3.05;;
40599;SDS011;26309;50.924;4.754;2023-12-29T10:25:43;17.92;;;3.08;;
40599;SDS011;26309;50.924;4.754;2023-12-29T10:28:09;13.70;;;2.55;;
40599;SDS011;26309;50.924;4.754;2023-12-29T10:30:35;11.68;;;2.53;;
40599;SDS011;26309;50.924;4.754;2023-12-29T10:33:05;9.13;;;2.72;;
40599;SDS011;26309;50.924;4.754;2023-12-29T10:35:31;8.25;;;2.58;;
40599;SDS011;26309;50.924;4.754;2023-12-29T10:38:12;10.32;;;2.70;;
40599;SDS011;26309;50.924;4.754;2023-12-29T10:40:38;8.73;;;2.60;;
40599;SDS011;26309;50.924;4.754;2023-12-29T10:43:05;12.88;;;2.55;;
40599;SDS011;26309;50.924;4.754;2023-12-29T10:45:33;6.78;;;2.20;;
40599;SDS011;26309;50.924;4.754;2023-12-29T10:48:00;6.47;;;2.28;;
40599;SDS011;26309;50.924;4.754;2023-12-29T10:50:26;10.10;;;2.50;;
40599;SDS011;26309;50.924;4.754;2023-12-29T10:53:26;10.02;;;2.40;;
40599;SDS011;26309;50.924;4.754;2023-12-29T10:55:44;13.48;;;2.45;;
40599;SDS011;26309;50.924;4.754;2023-12-29T10:58:11;9.05;;;2.15;;
40599;SDS011;26309;50.924;4.754;2023-12-29T11:00:36;13.93;;;2.53;;
40599;SDS011;26309;50.924;4.754;2023-12-29T11:03:02;9.30;;;2.10;;
40599;SDS011;26309;50.924;4.754;2023-12-29T11:05:29;5.95;;;1.55;;
40599;SDS011;26309;50.924;4.754;2023-12-29T11:07:55;10.23;;;2.13;;
40599;SDS011;26309;50.924;4.754;2023-12-29T11:10:21;6.68;;;1.80;;
40599;SDS011;26309;50.924;4.754;2023-12-29T11:12:47;7.10;;;1.80;;
40599;SDS011;26309;50.924;4.754;2023-12-29T11:15:14;7.80;;;1.90;;
40599;SDS011;26309;50.924;4.754;2023-12-29T11:17:41;12.25;;;1.70;;
40599;SDS011;26309;50.924;4.754;2023-12-29T11:20:16;8.25;;;1.90;;
40599;SDS011;26309;50.924;4.754;2023-12-29T11:22:42;8.15;;;1.98;;
40599;SDS011;26309;50.924;4.754;2023-12-29T11:25:11;8.43;;;2.08;;
40599;SDS011;26309;50.924;4.754;2023-12-29T11:27:37;9.15;;;2.10;;
40599;SDS011;26309;50.924;4.754;2023-12-29T11:30:03;9.30;;;2.00;;
40599;SDS011;26309;50.924;4.754;2023-12-29T11:32:39;10.23;;;1.90;;
40599;SDS011;26309;50.924;4.754;2023-12-29T11:35:13;8.95;;;2.17;;
40599;SDS011;26309;50.924;4.754;2023-12-29T11:40:33;7.40;;;2.00;;
40599;SDS011;26309;50.924;4.754;2023-12-29T11:43:14;9.65;;;2.10;;
40599;SDS011;26309;50.924;4.754;2023-12-29T11:45:42;10.20;;;2.30;;
40599;SDS011;26309;50.924;4.754;2023-12-29T11:48:11;12.20;;;2.00;;
40599;SDS011;26309;50.924;4.754;2023-12-29T11:50:38;9.43;;;1.90;;
40599;SDS011;26309;50.924;4.754;2023-12-29T11:53:09;12.23;;;1.88;;
40599;SDS011;26309;50.924;4.754;2023-12-29T11:56:01;4.95;;;1.80;;
40599;SDS011;26309;50.924;4.754;2023-12-29T11:58:39;14.63;;;2.47;;
40599;SDS011;26309;50.924;4.754;2023-12-29T12:01:05;7.63;;;1.95;;
40599;SDS011;26309;50.924;4.754;2023-12-29T12:03:31;6.93;;;1.92;;
40599;SDS011;26309;50.924;4.754;2023-12-29T12:05:57;7.85;;;1.90;;
40599;SDS011;26309;50.924;4.754;2023-12-29T12:13:54;10.50;;;2.67;;
40599;SDS011;26309;50.924;4.754;2023-12-29T12:19:11;6.60;;;1.90;;
40599;SDS011;26309;50.924;4.754;2023-12-29T12:21:37;8.63;;;1.85;;
40599;SDS011;26309;50.924;4.754;2023-12-29T12:24:04;9.45;;;2.05;;
40599;SDS011;26309;50.924;4.754;2023-12-29T12:26:31;12.10;;;2.38;;
40599;SDS011;26309;50.924;4.754;2023-12-29T12:28:57;4.15;;;1.63;;
40599;SDS011;26309;50.924;4.754;2023-12-29T12:31:23;7.90;;;2.00;;
40599;SDS011;26309;50.924;4.754;2023-12-29T12:33:58;6.80;;;1.77;;
40599;SDS011;26309;50.924;4.754;2023-12-29T12:36:25;7.65;;;1.75;;
40599;SDS011;26309;50.924;4.754;2023-12-29T12:38:57;5.55;;;1.77;;
40599;SDS011;26309;50.924;4.754;2023-12-29T12:41:24;8.75;;;1.60;;
40599;SDS011;26309;50.924;4.754;2023-12-29T12:44:04;7.22;;;1.70;;
40599;SDS011;26309;50.924;4.754;2023-12-29T12:46:58;8.98;;;1.85;;
40599;SDS011;26309;50.924;4.754;2023-12-29T12:49:28;5.20;;;1.63;;
40599;SDS011;26309;50.924;4.754;2023-12-29T12:51:55;5.07;;;1.95;;
40599;SDS011;26309;50.924;4.754;2023-12-29T12:54:21;5.68;;;1.70;;
40599;SDS011;26309;50.924;4.754;2023-12-29T12:56:47;5.82;;;2.17;;
40599;SDS011;26309;50.924;4.754;2023-12-29T12:59:14;10.13;;;2.22;;
40599;SDS011;26309;50.924;4.754;2023-12-29T13:01:41;10.27;;;2.22;;
40599;SDS011;26309;50.924;4.754;2023-12-29T13:04:08;9.95;;;2.20;;
40599;SDS011;26309;50.924;4.754;2023-12-29T13:06:35;12.57;;;2.42;;
40599;SDS011;26309;50.924;4.754;2023-12-29T13:09:06;15.27;;;2.40;;
40599;SDS011;26309;50.924;4.754;2023-12-29T13:11:36;7.82;;;2.25;;
40599;SDS011;26309;50.924;4.754;2023-12-29T13:14:02;13.15;;;2.42;;
40599;SDS011;26309;50.924;4.754;2023-12-29T13:16:36;9.27;;;2.55;;
40599;SDS011;26309;50.924;4.754;2023-12-29T13:19:19;10.43;;;2.53;;
40599;SDS011;26309;50.924;4.754;2023-12-29T13:21:48;9.38;;;2.40;;
40599;SDS011;26309;50.924;4.754;2023-12-29T13:24:15;9.23;;;2.28;;
40599;SDS011;26309;50.924;4.754;2023-12-29T13:26:43;9.63;;;2.03;;
40599;SDS011;26309;50.924;4.754;2023-12-29T13:29:11;7.95;;;2.60;;
40599;SDS011;26309;50.924;4.754;2023-12-29T13:31:39;6.65;;;2.10;;
40599;SDS011;26309;50.924;4.754;2023-12-29T13:34:06;9.48;;;2.13;;
40599;SDS011;26309;50.924;4.754;2023-12-29T13:36:47;7.10;;;2.20;;
40599;SDS011;26309;50.924;4.754;2023-12-29T13:39:30;7.25;;;2.10;;
40599;SDS011;26309;50.924;4.754;2023-12-29T13:42:10;10.48;;;2.67;;
40599;SDS011;26309;50.924;4.754;2023-12-29T13:44:40;9.05;;;2.42;;
40599;SDS011;26309;50.924;4.754;2023-12-29T13:47:07;6.30;;;2.55;;
40599;SDS011;26309;50.924;4.754;2023-12-29T13:49:34;9.85;;;2.30;;
40599;SDS011;26309;50.924;4.754;2023-12-29T13:52:04;7.70;;;1.88;;
40599;SDS011;26309;50.924;4.754;2023-12-29T13:54:31;6.82;;;1.98;;
40599;SDS011;26309;50.924;4.754;2023-12-29T13:57:08;4.88;;;1.63;;
40599;SDS011;26309;50.924;4.754;2023-12-29T13:59:34;5.05;;;1.58;;
40599;SDS011;26309;50.924;4.754;2023-12-29T14:02:42;4.78;;;1.75;;
40599;SDS011;26309;50.924;4.754;2023-12-29T14:08:17;10.13;;;2.13;;
40599;SDS011;26309;50.924;4.754;2023-12-29T14:10:44;5.45;;;1.55;;
40599;SDS011;26309;50.924;4.754;2023-12-29T14:13:10;6.32;;;1.63;;
40599;SDS011;26309;50.924;4.754;2023-12-29T14:15:40;6.57;;;1.58;;
40599;SDS011;26309;50.924;4.754;2023-12-29T14:18:42;6.78;;;1.60;;
40599;SDS011;26309;50.924;4.754;2023-12-29T14:26:56;3.72;;;1.70;;
40599;SDS011;26309;50.924;4.754;2023-12-29T14:29:25;4.00;;;1.75;;
40599;SDS011;26309;50.924;4.754;2023-12-29T14:31:51;6.20;;;2.20;;
40599;SDS011;26309;50.924;4.754;2023-12-29T14:34:18;4.88;;;1.95;;
40599;SDS011;26309;50.924;4.754;2023-12-29T14:36:45;4.57;;;2.00;;
40599;SDS011;26309;50.924;4.754;2023-12-29T14:39:11;6.97;;;1.98;;
40599;SDS011;26309;50.924;4.754;2023-12-29T14:41:38;4.72;;;2.15;;
40599;SDS011;26309;50.924;4.754;2023-12-29T14:44:04;4.53;;;2.22;;
40599;SDS011;26309;50.924;4.754;2023-12-29T14:46:33;4.78;;;2.40;;
40599;SDS011;26309;50.924;4.754;2023-12-29T14:49:01;8.15;;;2.92;;
40599;SDS011;26309;50.924;4.754;2023-12-29T14:51:27;5.85;;;2.60;;
40599;SDS011;26309;50.924;4.754;2023-12-29T14:53:53;5.93;;;2.30;;
40599;SDS011;26309;50.924;4.754;2023-12-29T14:56:19;8.23;;;2.90;;
40599;SDS011;26309;50.924;4.754;2023-12-29T14:58:45;7.30;;;3.03;;
40599;SDS011;26309;50.924;4.754;2023-12-29T15:01:11;6.57;;;3.00;;
40599;SDS011;26309;50.924;4.754;2023-12-29T15:03:37;6.68;;;3.55;;
40599;SDS011;26309;50.924;4.754;2023-12-29T15:06:03;8.63;;;3.28;;
40599;SDS011;26309;50.924;4.754;2023-12-29T15:08:30;8.80;;;3.95;;
40599;SDS011;26309;50.924;4.754;2023-12-29T15:11:03;8.63;;;4.05;;
40599;SDS011;26309;50.924;4.754;2023-12-29T15:13:30;8.95;;;4.03;;